Time;durP1;ratioP1;P1;durP2;ratioP2;P2;SDS_P1;SDS_P2;PMS_P1;PMS_P2;Temp;Humidity;BMP_temperature;BMP_pressure;BME280_temperature;BME280_humidity;BME280_pressure;Samples;Min_cycle;Max_cycle;Signal;HPM_P1;HPM_P2
2022/07/31 00:01:04;;;;;;;5.22;3.38;;;;;;;21.40;79.97;100777.09;8355887;28;20083;-49
2022/07/31 00:05:05;;;;;;;4.57;3.80;;;;;;;21.27;80.79;100774.28;8357482;28;20485;-52
2022/07/31 00:09:06;;;;;;;8.95;3.95;;;;;;;21.22;80.57;100772.16;8357796;28;20267;-50
2022/07/31 00:13:06;;;;;;;8.30;4.05;;;;;;;21.19;80.72;100771.69;8357708;28;20041;-48
2022/07/31 00:17:06;;;;;;;11.05;4.90;;;;;;;21.11;80.74;100774.63;8353613;28;20039;-49
2022/07/31 00:21:07;;;;;;;9.48;4.40;;;;;;;21.00;80.99;100767.78;8357868;28;20040;-49
2022/07/31 00:25:09;;;;;;;8.57;4.30;;;;;;;20.93;81.24;100769.63;8357303;28;20182;-51
2022/07/31 00:29:09;;;;;;;8.23;4.50;;;;;;;20.97;81.12;100770.09;8357607;28;20090;-50
2022/07/31 00:33:10;;;;;;;20.40;5.03;;;;;;;20.86;81.97;100762.38;8357495;28;20033;-48
2022/07/31 00:37:10;;;;;;;4.43;4.03;;;;;;;20.87;81.89;100745.69;8357700;28;20676;-48
2022/07/31 00:41:10;;;;;;;7.28;4.68;;;;;;;20.76;82.63;100743.47;8357193;28;20283;-51
2022/07/31 00:45:11;;;;;;;9.93;5.15;;;;;;;20.57;83.59;100732.34;8357291;28;20064;-52
2022/07/31 00:49:11;;;;;;;10.48;4.45;;;;;;;20.52;83.64;100734.84;8357267;28;20041;-49
2022/07/31 00:53:12;;;;;;;5.80;4.72;;;;;;;20.47;83.57;100732.72;8355824;28;20033;-48
2022/07/31 00:57:14;;;;;;;12.37;5.77;;;;;;;20.41;83.79;100733.50;8360515;28;20039;-49
2022/07/31 01:01:14;;;;;;;6.68;5.00;;;;;;;20.32;83.95;100739.31;8362011;28;20295;-49
2022/07/31 01:05:17;;;;;;;8.30;4.80;;;;;;;20.20;84.25;100732.66;8362883;28;20028;-48
2022/07/31 01:09:18;;;;;;;7.72;5.40;;;;;;;20.35;82.95;100722.44;8362592;28;20029;-48
2022/07/31 01:13:29;;;;;;;8.70;5.32;;;;;;;20.31;82.62;100726.66;8362803;28;20538;-50
2022/07/31 01:17:30;;;;;;;7.35;5.28;;;;;;;20.24;82.68;100725.72;8362946;28;20033;-49
2022/07/31 01:21:38;;;;;;;6.90;5.30;;;;;;;20.30;82.46;100722.19;8361618;28;20397;-50
2022/07/31 01:26:04;;;;;;;12.38;5.63;;;;;;;20.24;82.87;100720.22;8361850;28;20071;-48
2022/07/31 01:30:04;;;;;;;10.82;6.13;;;;;;;20.18;83.55;100715.53;8354820;28;20110;-48
2022/07/31 01:34:16;;;;;;;7.65;5.57;;;;;;;20.06;84.65;100711.59;8360519;28;20040;-49
2022/07/31 01:38:24;;;;;;;7.53;5.70;;;;;;;19.97;84.56;100708.13;8361957;28;20098;-49
2022/07/31 01:42:26;;;;;;;8.13;5.65;;;;;;;19.96;84.58;100708.31;8360961;28;20037;-48
2022/07/31 01:46:28;;;;;;;10.77;5.72;;;;;;;20.06;84.21;100708.88;8360993;28;20033;-48
2022/07/31 01:50:31;;;;;;;7.03;5.10;;;;;;;20.09;83.18;100713.94;8361364;28;20036;-48
2022/07/31 01:54:34;;;;;;;8.77;5.10;;;;;;;20.16;82.90;100706.66;8361476;28;20066;-51
2022/07/31 01:58:38;;;;;;;11.27;5.43;;;;;;;20.25;82.24;100711.78;8360163;28;20040;-50
2022/07/31 02:02:40;;;;;;;8.30;4.97;;;;;;;20.24;82.14;100710.09;8361019;28;20493;-51
2022/07/31 02:06:42;;;;;;;6.82;5.00;;;;;;;20.17;82.71;100708.34;8360788;28;20033;-49
2022/07/31 02:10:44;;;;;;;7.05;5.30;;;;;;;20.08;83.31;100704.00;8360651;28;20045;-48
2022/07/31 02:14:46;;;;;;;11.57;5.63;;;;;;;20.11;82.99;100717.34;8361140;28;20033;-49
2022/07/31 02:18:50;;;;;;;5.28;4.75;;;;;;;20.15;83.42;100726.91;8360743;28;20063;-49
2022/07/31 02:22:50;;;;;;;6.88;5.10;;;;;;;19.94;86.31;100725.00;8360388;28;20489;-49
2022/07/31 02:26:51;;;;;;;5.80;5.30;;;;;;;19.89;86.26;100732.13;8360536;28;20444;-50
2022/07/31 02:30:52;;;;;;;7.72;5.50;;;;;;;20.02;85.56;100724.00;8359882;28;20044;-48
2022/07/31 02:34:54;;;;;;;9.13;5.88;;;;;;;19.74;87.87;100723.94;8360420;28;20052;-49
2022/07/31 02:38:56;;;;;;;10.85;5.65;;;;;;;19.69;88.50;100720.91;8360359;28;20033;-48
2022/07/31 02:42:57;;;;;;;8.48;5.25;;;;;;;19.89;86.59;100723.88;8359736;28;20036;-48
2022/07/31 02:47:01;;;;;;;8.20;5.38;;;;;;;19.85;87.28;100719.84;8359008;28;20103;-50
2022/07/31 02:51:01;;;;;;;8.15;5.40;;;;;;;19.98;86.15;100718.09;8359430;28;20029;-48
2022/07/31 02:55:02;;;;;;;7.32;4.97;;;;;;;20.05;85.04;100705.25;8359685;28;20506;-50
2022/07/31 02:59:03;;;;;;;6.90;4.35;;;;;;;20.29;82.50;100713.13;8365559;28;20059;-50
2022/07/31 03:03:03;;;;;;;6.25;4.10;;;;;;;20.44;81.47;100710.28;8373625;28;20021;-51
2022/07/31 03:07:04;;;;;;;5.28;4.40;;;;;;;20.50;81.05;100709.47;8358746;28;20033;-48
2022/07/31 03:11:04;;;;;;;7.50;4.53;;;;;;;20.50;81.13;100703.97;8357304;28;20029;-48
2022/07/31 03:15:10;;;;;;;5.28;4.32;;;;;;;20.46;81.83;100702.69;8358625;28;20029;-48
2022/07/31 03:19:11;;;;;;;5.80;4.22;;;;;;;20.15;85.07;100704.94;8358450;28;20051;-48
2022/07/31 03:23:12;;;;;;;7.38;4.97;;;;;;;20.02;86.20;100705.66;8358184;28;20037;-49
2022/07/31 03:27:13;;;;;;;6.78;5.38;;;;;;;19.75;88.09;100706.44;8358470;28;20036;-48
2022/07/31 03:31:13;;;;;;;8.27;5.30;;;;;;;19.86;87.59;100718.78;8358620;28;20086;-50
2022/07/31 03:35:14;;;;;;;5.70;5.00;;;;;;;19.76;89.50;100712.78;8357790;28;20040;-50
2022/07/31 03:39:15;;;;;;;6.83;5.40;;;;;;;19.80;87.52;100712.19;8356865;28;20029;-52
2022/07/31 03:43:18;;;;;;;8.07;5.30;;;;;;;19.92;86.85;100713.38;8357911;28;20353;-49
2022/07/31 03:47:18;;;;;;;8.27;5.93;;;;;;;20.05;86.39;100709.88;8357584;28;20083;-48
2022/07/31 03:51:19;;;;;;;6.50;5.38;;;;;;;20.05;86.80;100704.41;8357456;28;20037;-48
2022/07/31 03:55:19;;;;;;;7.05;5.20;;;;;;;20.02;85.87;100713.03;8358532;28;20032;-50
2022/07/31 03:59:20;;;;;;;10.20;5.80;;;;;;;20.08;85.88;100714.97;8358610;28;20037;-48
2022/07/31 04:03:21;;;;;;;6.25;4.35;;;;;;;20.11;86.43;100714.59;8358100;28;20036;-49
2022/07/31 04:07:22;;;;;;;5.53;4.90;;;;;;;20.26;85.61;100719.00;8358560;28;20037;-49
2022/07/31 04:11:22;;;;;;;7.15;4.13;;;;;;;20.31;83.48;100710.16;8356543;28;20029;-49
2022/07/31 04:15:23;;;;;;;6.63;2.97;;;;;;;20.74;78.96;100703.53;8358376;28;20041;-49
2022/07/31 04:19:23;;;;;;;6.68;2.90;;;;;;;20.87;78.44;100712.69;8358589;28;20123;-49
2022/07/31 04:23:24;;;;;;;2.95;2.47;;;;;;;21.00;77.67;100707.31;8357563;28;20041;-49
2022/07/31 04:27:25;;;;;;;6.20;2.50;;;;;;;21.14;76.83;100697.22;8358068;28;20090;-48
2022/07/31 04:31:25;;;;;;;3.28;2.08;;;;;;;21.23;76.53;100698.75;8362783;28;20465;-48
2022/07/31 04:35:26;;;;;;;2.30;1.85;;;;;;;21.23;76.62;100693.25;8364477;28;20083;-48
2022/07/31 04:39:27;;;;;;;5.65;2.00;;;;;;;21.27;76.64;100697.28;8364417;28;20040;-48
2022/07/31 04:43:27;;;;;;;8.82;2.25;;;;;;;21.33;76.45;100707.47;8363671;28;20126;-48
2022/07/31 04:47:27;;;;;;;7.63;1.70;;;;;;;21.38;76.91;100710.44;8363258;28;20576;-48
2022/07/31 04:51:28;;;;;;;7.15;1.85;;;;;;;21.38;77.19;100704.94;8362747;28;20044;-48
2022/07/31 04:55:28;;;;;;;7.00;2.00;;;;;;;21.43;77.33;100710.66;8363632;28;20123;-51
2022/07/31 04:59:29;;;;;;;2.03;1.50;;;;;;;21.40;77.49;100713.00;8363175;28;20276;-48
2022/07/31 05:03:29;;;;;;;5.75;1.65;;;;;;;21.39;77.75;100723.16;8363515;28;20401;-49
2022/07/31 05:07:29;;;;;;;6.00;1.67;;;;;;;21.42;77.82;100728.25;8362797;28;20116;-49
2022/07/31 05:11:30;;;;;;;6.10;1.60;;;;;;;21.49;78.18;100723.59;8361730;28;20481;-51
2022/07/31 05:15:31;;;;;;;3.78;1.60;;;;;;;21.65;77.12;100723.22;8363300;28;20037;-49
2022/07/31 05:19:31;;;;;;;4.03;1.77;;;;;;;21.77;77.01;100718.03;8362622;28;20025;-49
2022/07/31 05:23:32;;;;;;;2.90;1.60;;;;;;;21.89;76.31;100721.88;8363098;28;20040;-52
2022/07/31 05:27:33;;;;;;;9.10;1.60;;;;;;;21.98;76.50;100723.34;8361831;28;20091;-49
2022/07/31 05:31:33;;;;;;;3.42;1.88;;;;;;;22.12;75.93;100720.41;8360970;28;20278;-49
2022/07/31 05:35:34;;;;;;;3.47;1.50;;;;;;;22.14;75.71;100726.53;8362702;28;20025;-49
2022/07/31 05:39:34;;;;;;;2.30;1.30;;;;;;;22.15;75.79;100717.22;8361352;28;20043;-48
2022/07/31 05:43:35;;;;;;;3.80;1.77;;;;;;;22.22;75.33;100723.59;8359750;28;20504;-48
2022/07/31 05:47:35;;;;;;;5.10;1.58;;;;;;;22.32;74.86;100717.69;8360433;28;20041;-50
2022/07/31 05:51:36;;;;;;;4.00;2.00;;;;;;;22.35;74.89;100725.50;8361761;28;20032;-48
2022/07/31 05:55:37;;;;;;;2.83;1.45;;;;;;;22.25;75.38;100720.41;8362049;28;20033;-50
2022/07/31 05:59:37;;;;;;;4.47;2.20;;;;;;;22.27;75.26;100712.78;8361602;28;20112;-50
2022/07/31 06:03:39;;;;;;;8.10;1.90;;;;;;;22.31;75.58;100713.19;8361803;28;20033;-49
2022/07/31 06:07:40;;;;;;;6.07;2.33;;;;;;;22.33;74.52;100722.97;8360974;28;20087;-50
2022/07/31 06:11:40;;;;;;;3.47;1.75;;;;;;;22.35;73.97;100723.59;8360546;28;20497;-51
2022/07/31 06:15:41;;;;;;;5.82;1.80;;;;;;;22.38;73.62;100720.41;8358939;28;20045;-51
2022/07/31 06:19:41;;;;;;;5.82;1.95;;;;;;;22.45;73.28;100721.25;8360805;28;20465;-52
2022/07/31 06:23:42;;;;;;;3.65;2.10;;;;;;;22.53;72.80;100710.06;8358149;28;20045;-48
2022/07/31 06:27:42;;;;;;;3.63;2.37;;;;;;;22.49;73.11;100722.53;8360094;28;20049;-52
2022/07/31 06:31:42;;;;;;;4.03;1.83;;;;;;;22.56;73.49;100731.69;8360732;28;20272;-50
2022/07/31 06:35:43;;;;;;;7.18;2.30;;;;;;;22.57;73.70;100719.59;8360826;28;20044;-49
2022/07/31 06:39:43;;;;;;;5.57;2.13;;;;;;;22.56;73.08;100723.41;8360281;28;20058;-48
2022/07/31 06:43:44;;;;;;;2.97;2.10;;;;;;;22.53;73.12;100721.06;8360389;28;20048;-48
2022/07/31 06:47:44;;;;;;;4.25;1.83;;;;;;;22.39;73.18;100724.88;8359863;28;20279;-48
2022/07/31 06:51:46;;;;;;;6.07;2.38;;;;;;;22.32;73.60;100715.75;8357726;28;20037;-49
2022/07/31 06:55:46;;;;;;;4.28;2.30;;;;;;;22.23;74.52;100727.19;8358705;28;20089;-52
2022/07/31 06:59:47;;;;;;;7.30;2.50;;;;;;;22.22;74.36;100729.09;8358001;28;20103;-51
2022/07/31 07:03:47;;;;;;;5.10;2.47;;;;;;;22.22;74.42;100729.09;8356071;28;20330;-49
2022/07/31 07:07:48;;;;;;;6.88;2.47;;;;;;;22.20;74.37;100728.44;8358889;28;20049;-49
2022/07/31 07:11:48;;;;;;;3.20;2.03;;;;;;;22.23;74.80;100722.53;8359186;28;20493;-53
2022/07/31 07:15:49;;;;;;;2.95;2.20;;;;;;;22.31;74.92;100729.72;8358796;28;20170;-51
2022/07/31 07:19:49;;;;;;;4.27;2.23;;;;;;;22.26;75.34;100727.59;8358175;28;20401;-53
2022/07/31 07:23:49;;;;;;;3.78;2.00;;;;;;;22.12;76.36;100734.19;8357892;28;20272;-48
2022/07/31 07:27:50;;;;;;;5.78;2.13;;;;;;;22.04;76.54;100726.09;8358022;28;20048;-50
2022/07/31 07:31:50;;;;;;;2.55;2.00;;;;;;;22.02;76.97;100725.47;8358135;28;20037;-49
2022/07/31 07:35:50;;;;;;;3.10;1.75;;;;;;;22.21;77.52;100730.16;8358518;28;20175;-50
2022/07/31 07:39:51;;;;;;;5.55;1.73;;;;;;;22.53;77.12;100718.31;8357826;28;20040;-48
2022/07/31 07:43:52;;;;;;;3.42;1.48;;;;;;;22.72;76.15;100709.19;8358781;28;20452;-52
2022/07/31 07:47:53;;;;;;;7.00;2.05;;;;;;;23.13;75.35;100706.97;8357553;28;20040;-52
2022/07/31 07:51:53;;;;;;;4.00;1.65;;;;;;;23.41;74.34;100712.19;8358408;28;22621;-49
2022/07/31 07:55:54;;;;;;;2.90;1.63;;;;;;;23.51;74.08;100706.22;8356927;28;20098;-52
2022/07/31 07:59:58;;;;;;;9.00;1.95;;;;;;;23.72;73.16;100697.63;8356784;28;20041;-49
2022/07/31 08:03:58;;;;;;;2.55;1.20;;;;;;;23.92;73.16;100695.56;8359306;28;20033;-51
2022/07/31 08:07:59;;;;;;;3.80;1.30;;;;;;;24.30;72.03;100699.97;8364469;28;20037;-51
2022/07/31 08:12:00;;;;;;;2.67;1.05;;;;;;;24.21;72.08;100697.72;8364735;28;20511;-50
2022/07/31 08:16:00;;;;;;;1.63;1.10;;;;;;;24.67;71.31;100687.97;8364745;28;20060;-51
2022/07/31 08:20:01;;;;;;;1.48;0.80;;;;;;;25.03;69.55;100687.16;8360372;28;20317;-49
2022/07/31 08:24:02;;;;;;;1.00;0.80;;;;;;;25.03;70.14;100688.00;8359763;28;20025;-49
2022/07/31 08:28:02;;;;;;;1.55;0.88;;;;;;;25.34;68.62;100684.25;8362659;28;20608;-49
2022/07/31 08:32:03;;;;;;;0.88;0.70;;;;;;;25.48;68.22;100685.78;8362321;28;20056;-50
2022/07/31 08:36:07;;;;;;;3.72;0.77;;;;;;;25.64;67.39;100679.59;8362306;28;20457;-50
2022/07/31 08:40:08;;;;;;;1.10;0.63;;;;;;;26.76;65.14;100676.72;8325978;28;20429;-52
2022/07/31 08:44:09;;;;;;;1.17;0.80;;;;;;;27.09;63.30;100678.88;8326383;28;20124;-52
2022/07/31 08:48:10;;;;;;;0.90;0.80;;;;;;;26.99;63.00;100673.09;8357380;28;20092;-49
2022/07/31 08:52:17;;;;;;;2.25;0.60;;;;;;;27.59;61.33;100669.69;8326057;28;20034;-53
2022/07/31 08:56:19;;;;;;;1.60;0.80;;;;;;;27.61;61.07;100666.66;8351486;28;20043;-52
2022/07/31 09:00:21;;;;;;;1.60;0.82;;;;;;;27.60;60.85;100667.78;8349148;28;20050;-49
2022/07/31 09:04:23;;;;;;;1.10;0.68;;;;;;;27.26;61.82;100674.28;8357462;28;20044;-53
2022/07/31 09:08:23;;;;;;;1.65;0.73;;;;;;;26.92;62.56;100677.94;8358019;28;20056;-52
2022/07/31 09:12:29;;;;;;;2.17;0.60;;;;;;;26.98;61.09;100676.97;8358823;28;20207;-49
2022/07/31 09:16:30;;;;;;;1.00;0.50;;;;;;;26.75;62.17;100675.06;8358392;28;20044;-49
2022/07/31 09:20:31;;;;;;;0.82;0.77;;;;;;;27.00;62.06;100680.31;8358825;28;20029;-49
2022/07/31 09:24:34;;;;;;;1.15;0.60;;;;;;;26.85;62.13;100666.97;8358379;28;20344;-50
2022/07/31 09:28:38;;;;;;;0.70;0.60;;;;;;;26.88;62.31;100671.16;8357225;28;20041;-48
2022/07/31 09:32:38;;;;;;;;;;;;;;;26.93;61.98;100668.50;8357144;28;20052;-51
2022/07/31 09:36:39;;;;;;;1.80;0.90;;;;;;;27.17;61.18;100675.72;8351049;28;20232;-49
2022/07/31 09:40:42;;;;;;;2.58;0.73;;;;;;;27.29;61.22;100663.50;8350345;28;20033;-51
2022/07/31 09:44:45;;;;;;;1.50;0.50;;;;;;;27.31;61.32;100666.91;8354130;28;20084;-52
2022/07/31 09:48:51;;;;;;;1.38;0.80;;;;;;;27.10;62.12;100663.88;8347713;28;20064;-51
2022/07/31 09:52:58;;;;;;;5.82;1.17;;;;;;;27.54;61.54;100671.53;8352601;28;20079;-50
2022/07/31 09:57:15;;;;;;;2.25;1.08;;;;;;;28.12;59.69;100675.72;8353372;28;20060;-51
2022/07/31 10:01:17;;;;;;;3.60;0.93;;;;;;;29.79;56.74;100669.59;8347763;28;20029;-50
2022/07/31 10:05:17;;;;;;;2.40;0.82;;;;;;;29.33;56.34;100667.34;8353785;28;20040;-51
2022/07/31 10:09:20;;;;;;;2.95;1.40;;;;;;;29.23;55.91;100666.38;8354325;28;20037;-51
2022/07/31 10:13:21;;;;;;;2.22;1.00;;;;;;;29.06;57.14;100663.66;8354241;28;20041;-50
2022/07/31 10:17:27;;;;;;;2.08;0.82;;;;;;;29.55;56.05;100659.81;8352412;28;20033;-49
2022/07/31 10:21:42;;;;;;;3.95;1.00;;;;;;;30.48;53.18;100664.13;8352553;28;20029;-53
2022/07/31 10:25:50;;;;;;;2.15;1.10;;;;;;;30.60;53.03;100650.81;8349319;28;20120;-50
2022/07/31 10:29:51;;;;;;;1.17;0.88;;;;;;;30.08;53.81;100643.13;8346071;28;20037;-49
2022/07/31 10:33:53;;;;;;;2.08;0.88;;;;;;;31.89;51.35;100656.28;8352674;28;20075;-53
2022/07/31 10:38:09;;;;;;;1.25;0.88;;;;;;;32.44;50.57;100652.69;8353000;28;20045;-52
2022/07/31 10:42:34;;;;;;;1.73;0.80;;;;;;;31.26;50.90;100636.19;8348690;28;20492;-53
2022/07/31 10:46:34;;;;;;;2.63;0.93;;;;;;;31.31;52.62;100636.22;8348281;28;20051;-49
2022/07/31 10:50:35;;;;;;;1.63;1.08;;;;;;;31.99;51.74;100630.28;8350756;28;20036;-51
2022/07/31 10:54:41;;;;;;;3.17;1.03;;;;;;;32.02;51.13;100633.34;8350653;28;20489;-50
2022/07/31 10:58:57;;;;;;;2.55;0.90;;;;;;;33.84;48.19;100623.38;8345897;28;20659;-50
2022/07/31 11:02:58;;;;;;;4.22;0.98;;;;;;;34.34;45.95;100630.59;8346227;28;20032;-53
2022/07/31 11:06:59;;;;;;;7.67;1.17;;;;;;;33.96;46.42;100614.66;8350707;28;20171;-50
2022/07/31 11:11:00;;;;;;;2.08;1.00;;;;;;;35.33;45.33;100619.44;8351087;28;20350;-53
2022/07/31 11:15:01;;;;;;;4.05;1.05;;;;;;;31.95;49.01;100620.75;8350371;28;20040;-53
2022/07/31 11:19:05;;;;;;;2.33;1.25;;;;;;;31.99;51.10;100611.53;8348993;28;20039;-54
2022/07/31 11:23:08;;;;;;;3.17;1.15;;;;;;;34.83;45.38;100604.03;8349596;28;20040;-50
2022/07/31 11:27:09;;;;;;;3.97;0.88;;;;;;;34.13;46.83;100603.84;8347896;28;20051;-50
2022/07/31 11:31:09;;;;;;;4.82;1.00;;;;;;;33.87;45.94;100606.84;8350153;28;20025;-51
2022/07/31 11:35:10;;;;;;;2.30;1.13;;;;;;;32.28;49.76;100622.16;8350741;28;20029;-50
2022/07/31 11:39:11;;;;;;;2.00;1.00;;;;;;;33.08;48.95;100610.88;8350024;28;20284;-50
2022/07/31 11:43:12;;;;;;;3.83;1.08;;;;;;;33.71;48.00;100602.44;8352759;28;20284;-49
2022/07/31 11:47:13;;;;;;;3.25;0.98;;;;;;;32.86;47.85;100588.81;8347568;28;20521;-50
2022/07/31 11:51:17;;;;;;;2.90;1.10;;;;;;;32.91;48.60;100586.00;8349446;28;20102;-49
2022/07/31 11:55:18;;;;;;;2.70;1.02;;;;;;;32.13;49.89;100583.81;8351502;28;20045;-53
2022/07/31 11:59:29;;;;;;;2.95;1.00;;;;;;;31.27;51.73;100581.94;8351770;28;20120;-49
2022/07/31 12:03:35;;;;;;;2.90;1.30;;;;;;;31.64;50.72;100579.84;8350416;28;20497;-53
2022/07/31 12:07:36;;;;;;;3.88;1.30;;;;;;;31.27;51.41;100574.41;8350845;28;20033;-50
2022/07/31 12:11:36;;;;;;;3.47;1.10;;;;;;;31.71;51.06;100572.03;8346581;28;20494;-51
2022/07/31 12:15:37;;;;;;;4.35;1.30;;;;;;;31.33;52.13;100572.50;8349513;28;20075;-52
2022/07/31 12:19:37;;;;;;;6.05;1.70;;;;;;;30.50;54.07;100572.59;8351338;28;20041;-49
2022/07/31 12:23:41;;;;;;;1.63;1.20;;;;;;;30.19;54.96;100582.72;8350643;28;20056;-50
2022/07/31 12:27:41;;;;;;;1.90;1.30;;;;;;;30.55;54.38;100581.84;8349329;28;20283;-50
2022/07/31 12:31:45;;;;;;;4.00;1.57;;;;;;;30.73;53.77;100566.63;8349343;28;20090;-50
2022/07/31 12:35:45;;;;;;;3.97;1.92;;;;;;;30.91;54.29;100564.22;8351029;28;20292;-51
2022/07/31 12:44:16;;;;;;;2.33;1.90;;;;;;;30.87;54.26;100556.66;8383357;27;20795;-49
2022/07/31 12:48:16;;;;;;;2.42;1.45;;;;;;;30.75;55.03;100542.06;8377677;28;20045;-50
2022/07/31 12:52:17;;;;;;;6.43;1.50;;;;;;;30.93;53.62;100549.97;8378558;28;20056;-51
2022/07/31 12:56:18;;;;;;;2.28;1.60;;;;;;;30.57;54.31;100548.09;8378362;28;20715;-50
2022/07/31 13:00:22;;;;;;;5.57;1.77;;;;;;;30.43;54.41;100534.59;8378765;28;20025;-48
2022/07/31 13:04:22;;;;;;;2.65;1.42;;;;;;;30.52;53.70;100526.56;8379270;28;20090;-48
2022/07/31 13:08:23;;;;;;;3.63;1.52;;;;;;;30.64;53.97;100523.56;8380079;28;20128;-53
2022/07/31 13:12:23;;;;;;;4.93;1.90;;;;;;;30.43;54.02;100529.03;8378527;28;20040;-50
2022/07/31 13:16:23;;;;;;;2.23;1.60;;;;;;;30.29;54.06;100519.47;8379949;28;20675;-51
2022/07/31 13:20:24;;;;;;;3.08;1.65;;;;;;;30.91;53.77;100518.66;8379250;28;20048;-49
2022/07/31 13:24:25;;;;;;;4.88;1.70;;;;;;;30.93;53.22;100517.31;8379087;28;20050;-49
2022/07/31 13:28:25;;;;;;;2.78;1.52;;;;;;;30.59;53.39;100509.56;8377609;28;20386;-51
2022/07/31 13:32:26;;;;;;;3.90;1.42;;;;;;;30.40;54.57;100511.97;8378302;28;20041;-49
2022/07/31 13:36:26;;;;;;;4.65;1.48;;;;;;;30.60;53.90;100505.66;8378898;28;20037;-48
2022/07/31 13:41:29;;;;;;;4.13;1.45;;;;;;;30.28;54.39;100508.59;8377846;28;20044;-52
2022/07/31 13:44:47;;;;;;;3.08;1.50;;;;;;;30.03;54.36;100509.19;8340042;28;20041;-50
2022/07/31 13:48:49;;;;;;;2.20;1.47;;;;;;;29.88;54.90;100506.28;8355413;28;20120;-49
2022/07/31 13:52:50;;;;;;;2.38;1.17;;;;;;;29.49;55.79;100504.81;8370443;28;20862;-49
2022/07/31 13:56:50;;;;;;;3.70;1.30;;;;;;;29.50;56.30;100506.50;8354999;28;20405;-49
2022/07/31 14:00:50;;;;;;;3.67;1.35;;;;;;;29.54;56.26;100507.66;8354753;28;20314;-53
2022/07/31 14:04:51;;;;;;;3.45;1.58;;;;;;;29.36;56.52;100510.81;8355917;28;20029;-50
2022/07/31 14:08:51;;;;;;;3.00;1.40;;;;;;;29.04;56.86;100501.56;8356329;28;20033;-50
2022/07/31 14:12:52;;;;;;;1.47;1.27;;;;;;;29.03;57.39;100504.56;8356810;28;20279;-49
2022/07/31 14:16:52;;;;;;;2.63;1.75;;;;;;;29.07;57.50;100501.03;8351120;28;20283;-50
2022/07/31 14:20:53;;;;;;;2.93;1.77;;;;;;;28.93;57.49;100505.28;8355681;28;20405;-49
2022/07/31 14:24:53;;;;;;;2.33;1.57;;;;;;;29.05;57.34;100497.66;8356418;28;20301;-50
2022/07/31 14:28:53;;;;;;;1.60;1.47;;;;;;;29.23;57.27;100488.09;8355484;28;20375;-49
2022/07/31 14:32:54;;;;;;;5.32;2.25;;;;;;;29.27;56.98;100490.09;8355774;28;20828;-52
2022/07/31 14:36:54;;;;;;;6.25;2.40;;;;;;;29.29;56.58;100493.47;8356222;28;20180;-50
2022/07/31 14:40:55;;;;;;;2.10;1.77;;;;;;;29.49;56.62;100493.66;8351661;28;20045;-52
2022/07/31 14:44:55;;;;;;;6.77;2.03;;;;;;;29.32;56.25;100498.53;8328517;28;20347;-49
2022/07/31 14:48:57;;;;;;;2.00;1.80;;;;;;;29.14;57.16;100484.97;8346499;28;20742;-49
2022/07/31 14:52:58;;;;;;;6.13;1.55;;;;;;;29.32;56.56;100492.94;8328196;28;20087;-51
2022/07/31 14:57:00;;;;;;;5.90;1.83;;;;;;;29.56;55.90;100494.28;8345289;28;20038;-50
2022/07/31 15:01:00;;;;;;;2.78;1.85;;;;;;;29.90;55.36;100487.38;8344159;28;20471;-49
2022/07/31 15:05:01;;;;;;;1.93;1.50;;;;;;;30.03;54.93;100484.09;8342828;28;20118;-52
2022/07/31 15:09:02;;;;;;;3.53;1.67;;;;;;;30.15;55.37;100489.47;8339691;28;20283;-53
2022/07/31 15:13:02;;;;;;;4.95;1.73;;;;;;;30.13;55.13;100486.94;8336953;28;20392;-50
2022/07/31 15:17:02;;;;;;;5.13;1.95;;;;;;;29.89;55.86;100488.44;8328635;28;20087;-49
2022/07/31 15:21:03;;;;;;;2.10;1.90;;;;;;;29.85;56.43;100481.72;8324594;28;20034;-50
2022/07/31 15:25:04;;;;;;;2.58;1.65;;;;;;;30.07;55.33;100468.50;8336249;28;20545;-50
2022/07/31 15:29:04;;;;;;;6.35;1.95;;;;;;;29.86;55.26;100477.84;8335537;28;20068;-49
2022/07/31 15:33:05;;;;;;;1.93;1.50;;;;;;;30.02;55.17;100465.69;8339143;28;20040;-51
2022/07/31 15:37:05;;;;;;;3.23;1.70;;;;;;;30.12;55.21;100465.75;8340099;28;20751;-49
2022/07/31 15:41:06;;;;;;;4.82;1.80;;;;;;;29.46;55.89;100471.88;8343015;28;20932;-53
2022/07/31 15:45:08;;;;;;;3.05;1.50;;;;;;;29.28;56.99;100463.94;8330561;28;20049;-51
2022/07/31 15:49:09;;;;;;;4.20;2.17;;;;;;;29.16;57.21;100466.06;8333060;28;20552;-49
2022/07/31 15:53:09;;;;;;;3.55;2.03;;;;;;;29.19;57.49;100471.09;8337340;28;20434;-50
2022/07/31 15:57:10;;;;;;;3.70;2.10;;;;;;;29.17;57.64;100464.09;8334999;28;20056;-49
2022/07/31 16:01:10;;;;;;;3.05;1.60;;;;;;;29.01;58.25;100463.06;8348155;28;20518;-49
2022/07/31 16:05:10;;;;;;;3.93;2.00;;;;;;;29.15;58.19;100453.22;8333314;28;20037;-51
2022/07/31 16:09:11;;;;;;;4.50;2.00;;;;;;;29.26;58.45;100457.78;8331333;28;20784;-49
2022/07/31 16:13:11;;;;;;;3.63;2.00;;;;;;;28.88;59.14;100457.91;8335190;28;20032;-50
2022/07/31 16:17:12;;;;;;;4.00;1.90;;;;;;;28.52;60.22;100459.41;8331349;28;20508;-49
2022/07/31 16:21:12;;;;;;;5.60;2.37;;;;;;;28.52;60.38;100447.47;8329516;28;20287;-51
2022/07/31 16:25:12;;;;;;;4.93;2.10;;;;;;;28.45;60.30;100446.78;8332162;28;20282;-51
2022/07/31 16:29:13;;;;;;;5.43;1.90;;;;;;;28.46;60.33;100442.94;8324450;28;20268;-50
2022/07/31 16:33:14;;;;;;;3.65;1.98;;;;;;;28.31;61.09;100442.69;8342806;28;20051;-51
2022/07/31 16:37:15;;;;;;;3.85;2.28;;;;;;;28.23;61.77;100451.47;8338214;28;20527;-53
2022/07/31 16:41:16;;;;;;;2.53;1.95;;;;;;;28.27;61.37;100447.09;8330545;28;20124;-49
2022/07/31 16:45:16;;;;;;;5.70;1.90;;;;;;;28.44;61.52;100447.88;8337357;28;20056;-50
2022/07/31 16:49:17;;;;;;;3.50;1.90;;;;;;;28.27;60.73;100449.88;8333798;28;20142;-53
2022/07/31 16:53:17;;;;;;;4.50;2.38;;;;;;;28.18;61.39;100437.53;8343369;28;20037;-51
2022/07/31 16:57:18;;;;;;;5.97;2.03;;;;;;;28.08;61.72;100438.22;8331716;28;20045;-51
2022/07/31 17:01:19;;;;;;;3.53;1.40;;;;;;;28.23;61.19;100448.69;8324859;28;20044;-48
2022/07/31 17:05:19;;;;;;;3.20;1.30;;;;;;;28.27;60.99;100438.75;8327696;28;20038;-50
2022/07/31 17:09:20;;;;;;;1.42;1.30;;;;;;;28.28;61.46;100446.00;8338510;28;20053;-50
2022/07/31 17:13:21;;;;;;;3.78;1.42;;;;;;;28.00;61.94;100432.25;8339153;28;20051;-49
2022/07/31 17:17:22;;;;;;;4.07;1.75;;;;;;;27.85;63.31;100429.22;8333457;28;20079;-50
2022/07/31 17:21:23;;;;;;;2.90;1.25;;;;;;;27.82;62.23;100446.41;8338348;28;20494;-49
2022/07/31 17:25:23;;;;;;;2.15;1.52;;;;;;;27.89;61.94;100430.41;8340853;28;20134;-49
2022/07/31 17:29:24;;;;;;;3.75;1.48;;;;;;;28.11;61.64;100434.06;8348131;28;20045;-49
2022/07/31 17:33:45;;;;;;;3.90;1.67;;;;;;;27.87;62.31;100440.97;8351530;28;20036;-49
2022/07/31 17:37:45;;;;;;;4.05;1.75;;;;;;;27.57;62.77;100449.59;8348982;28;20780;-49
2022/07/31 17:41:45;;;;;;;2.03;1.40;;;;;;;27.40;63.50;100447.91;8352468;28;20473;-50
2022/07/31 17:45:46;;;;;;;4.17;1.40;;;;;;;27.29;63.87;100451.63;8348682;28;20102;-48
2022/07/31 17:49:47;;;;;;;3.42;1.40;;;;;;;27.24;64.06;100455.16;8352081;28;20381;-50
2022/07/31 17:53:47;;;;;;;1.98;1.33;;;;;;;27.20;64.41;100464.22;8350481;28;20160;-51
2022/07/31 17:57:48;;;;;;;5.35;1.35;;;;;;;27.12;65.09;100462.69;8353502;28;20417;-50
2022/07/31 18:01:48;;;;;;;1.27;1.00;;;;;;;27.22;64.67;100462.00;8352871;28;20033;-52
2022/07/31 18:05:49;;;;;;;3.50;1.73;;;;;;;27.26;63.80;100452.97;8366693;28;20294;-49
2022/07/31 18:09:49;;;;;;;3.77;1.03;;;;;;;27.16;64.26;100457.44;8342124;28;20503;-48
2022/07/31 18:13:50;;;;;;;2.23;0.90;;;;;;;27.09;64.64;100456.78;8351907;28;20324;-48
2022/07/31 18:17:52;;;;;;;2.38;1.00;;;;;;;27.15;64.52;100461.34;8350336;28;20460;-51
2022/07/31 18:21:53;;;;;;;2.67;1.13;;;;;;;27.01;64.99;100471.06;8351695;28;20033;-51
2022/07/31 18:25:57;;;;;;;3.45;0.73;;;;;;;26.89;65.65;100470.28;8353409;28;20036;-49
2022/07/31 18:29:57;;;;;;;2.72;1.25;;;;;;;26.73;66.01;100481.06;8332987;28;20040;-49
2022/07/31 18:33:58;;;;;;;6.18;1.05;;;;;;;26.67;66.33;100479.28;8346094;28;20041;-48
2022/07/31 18:37:58;;;;;;;3.17;0.85;;;;;;;26.63;66.90;100480.84;8352766;28;20064;-50
2022/07/31 18:41:58;;;;;;;3.22;1.00;;;;;;;26.55;67.09;100486.75;8351546;28;20033;-52
2022/07/31 18:45:59;;;;;;;3.40;1.23;;;;;;;26.34;67.90;100487.41;8352328;28;20036;-50